Ponca, Nebraska
Current Conditions -  °F | °C
As of 2:52 AM on Friday 31 Oct 2014 (Local Time) from KSUX Reporting Station
Clear Clear  
Wind Chill: 20°   Ceiling: Unl
Heat Index: 31°   Visibility: 10mi
Dew Point: 21°   Wind: 15mph
Humidity: 67%   Direction: 350°N
Pressure: 30.51"   Gusts: NA
Location:  42.56°N, 96.71°W
Report Text: KSUX 310752Z 35013KT 10SM CLR M01/M06 A3051 RMK AO2 SLP337 T10061061
Loading
Personal Weather Stations






























Interactive Weather Map
Tropical Storm Tracking
New forecast layout! Learn more

10-Day Weather Forecast

Advertisements
Track Severe Weather on mobile